createdAt,value
2019-02-14T00:01:40.469Z,83.31
2019-02-14T00:04:11.373Z,83.28
2019-02-14T00:06:42.317Z,83.33
2019-02-14T00:09:15.888Z,83.43
2019-02-14T00:11:46.844Z,83.12
2019-02-14T00:14:17.745Z,83.09
2019-02-14T00:16:48.676Z,83.35
2019-02-14T00:19:21.114Z,83.40
2019-02-14T00:21:52.105Z,83.24
2019-02-14T00:24:23.125Z,83.56
2019-02-14T00:26:54.129Z,83.47
2019-02-14T00:29:25.894Z,83.32
2019-02-14T00:31:57.013Z,83.31
2019-02-14T00:34:27.981Z,83.30
2019-02-14T00:36:58.939Z,83.19
2019-02-14T00:39:29.896Z,83.25
2019-02-14T00:42:00.862Z,83.31
2019-02-14T00:44:31.754Z,83.36
2019-02-14T00:47:03.040Z,83.38
2019-02-14T00:49:33.977Z,83.27
2019-02-14T00:52:04.898Z,83.37
2019-02-14T00:54:37.260Z,83.24
2019-02-14T00:57:08.273Z,83.09
2019-02-14T00:59:39.117Z,83.12
2019-02-14T01:02:10.102Z,83.06
2019-02-14T01:04:40.999Z,83.07
2019-02-14T01:07:13.137Z,83.03
2019-02-14T01:09:44.006Z,82.92
2019-02-14T01:12:15.027Z,83.05
2019-02-14T01:14:45.991Z,83.06
2019-02-14T01:17:16.927Z,82.96
2019-02-14T01:19:47.825Z,83.22
2019-02-14T01:22:18.837Z,83.08
2019-02-14T01:24:49.742Z,83.15
2019-02-14T01:27:20.696Z,83.29
2019-02-14T01:29:52.574Z,83.27
2019-02-14T01:32:28.992Z,83.45
2019-02-14T01:34:59.873Z,83.48
2019-02-14T01:37:30.907Z,83.46
2019-02-14T01:43:01.796Z,83.24
2019-02-14T01:45:35.401Z,83.33
2019-02-14T01:48:06.311Z,83.37
2019-02-14T01:50:37.282Z,83.31
2019-02-14T01:53:08.199Z,83.12
2019-02-14T01:55:39.098Z,83.09
2019-02-14T01:58:10.219Z,83.01
2019-02-14T02:00:41.122Z,82.78
2019-02-14T02:03:12.045Z,82.69
2019-02-14T02:05:50.675Z,82.68
2019-02-14T02:08:15.662Z,82.47
2019-02-14T02:10:48.082Z,82.32
2019-02-14T02:13:22.023Z,82.22
2019-02-14T02:15:52.921Z,82.02
2019-02-14T02:18:24.306Z,81.99
2019-02-14T02:20:55.382Z,81.80
2019-02-14T02:23:26.299Z,81.59
2019-02-14T02:25:57.191Z,81.60
2019-02-14T02:28:28.171Z,81.54
2019-02-14T02:30:59.072Z,81.46
2019-02-14T02:33:30.125Z,81.28
2019-02-14T02:36:01.049Z,81.09
2019-02-14T02:38:32.081Z,80.93
2019-02-14T02:41:02.985Z,80.74
2019-02-14T02:43:33.948Z,80.60
2019-02-14T02:46:04.838Z,80.53
2019-02-14T02:48:35.760Z,80.34
2019-02-14T02:51:06.654Z,80.43
2019-02-14T02:53:37.579Z,80.16
2019-02-14T02:56:08.476Z,80.07
2019-02-14T02:58:39.581Z,80.10
2019-02-14T03:01:10.488Z,79.99
2019-02-14T03:03:44.407Z,79.98
2019-02-14T03:06:18.434Z,79.88
2019-02-14T03:08:49.450Z,79.75
2019-02-14T03:11:20.324Z,79.67
2019-02-14T03:13:51.266Z,79.61
2019-02-14T03:16:25.076Z,79.58
2019-02-14T03:18:56.007Z,79.74
2019-02-14T03:21:28.821Z,79.70
2019-02-14T03:23:59.712Z,79.71
2019-02-14T03:26:30.615Z,79.74
2019-02-14T03:29:03.797Z,79.83
2019-02-14T03:31:34.645Z,79.73
2019-02-14T03:34:05.570Z,79.72
2019-02-14T03:36:36.459Z,79.66
2019-02-14T03:39:07.493Z,79.97
2019-02-14T03:41:38.388Z,79.95
2019-02-14T03:44:09.338Z,79.94
2019-02-14T03:46:40.232Z,80.01
2019-02-14T03:49:11.155Z,79.79
2019-02-14T03:51:42.067Z,79.83
2019-02-14T03:54:13.102Z,79.93
2019-02-14T03:56:44.000Z,80.00
2019-02-14T03:59:14.944Z,79.91
2019-02-14T04:01:45.839Z,79.66
2019-02-14T04:04:16.774Z,79.63
2019-02-14T04:06:47.664Z,79.67
2019-02-14T04:09:18.594Z,79.86
2019-02-14T04:11:49.621Z,79.88
2019-02-14T04:14:20.592Z,80.08
2019-02-14T04:16:51.493Z,80.13
2019-02-14T04:19:25.630Z,80.07
2019-02-14T04:21:56.512Z,80.18
2019-02-14T04:24:27.441Z,80.17
2019-02-14T04:26:58.327Z,80.08
2019-02-14T04:29:29.294Z,80.23
2019-02-14T04:32:00.199Z,80.33
2019-02-14T04:34:31.127Z,80.29
2019-02-14T04:37:02.018Z,80.29
2019-02-14T04:39:33.026Z,80.40
2019-02-14T04:42:03.944Z,80.39
2019-02-14T04:44:34.922Z,80.50
2019-02-14T04:47:05.816Z,80.40
2019-02-14T04:49:38.334Z,80.28
2019-02-14T04:52:09.222Z,80.31
2019-02-14T04:54:40.156Z,80.19
2019-02-14T04:57:11.039Z,80.27
2019-02-14T04:59:42.164Z,80.20
2019-02-14T05:02:15.951Z,80.16
2019-02-14T05:04:46.883Z,80.15
2019-02-14T05:07:17.785Z,80.18
2019-02-14T05:09:48.723Z,80.19
2019-02-14T05:12:19.622Z,80.50
2019-02-14T05:14:50.623Z,80.31
2019-02-14T05:17:21.510Z,80.36
2019-02-14T05:19:55.112Z,80.52
2019-02-14T05:22:26.087Z,80.69
2019-02-14T05:24:59.919Z,80.71
2019-02-14T05:27:30.977Z,80.82
2019-02-14T05:30:02.017Z,81.20
2019-02-14T05:32:32.926Z,81.29
2019-02-14T05:35:03.838Z,81.18
2019-02-14T05:37:34.744Z,81.08
2019-02-14T05:40:08.418Z,81.29
2019-02-14T05:42:39.634Z,81.03
2019-02-14T05:45:13.936Z,81.13
2019-02-14T05:47:44.855Z,81.48
2019-02-14T05:50:15.895Z,81.47
2019-02-14T05:52:46.848Z,81.70
2019-02-14T05:55:17.742Z,81.97
2019-02-14T05:57:48.750Z,81.96
2019-02-14T06:00:22.432Z,81.74
2019-02-14T06:02:56.133Z,81.73
2019-02-14T06:05:27.070Z,81.79
2019-02-14T06:07:57.967Z,81.80
2019-02-14T06:10:28.903Z,81.75
2019-02-14T06:12:59.815Z,81.79
2019-02-14T06:15:30.809Z,81.59
2019-02-14T06:18:01.701Z,81.44
2019-02-14T06:20:32.634Z,81.43
2019-02-14T06:23:03.536Z,81.42
2019-02-14T06:25:34.477Z,81.29
2019-02-14T06:28:05.477Z,81.14
2019-02-14T06:30:37.271Z,80.92
2019-02-14T06:33:09.884Z,80.72
2019-02-14T06:35:40.843Z,80.44
2019-02-14T06:38:14.625Z,80.22
2019-02-14T06:40:45.533Z,80.12
2019-02-14T06:43:19.130Z,79.97
2019-02-14T06:45:50.120Z,79.95
2019-02-14T06:48:21.226Z,79.89
2019-02-14T06:50:52.735Z,80.01
2019-02-14T06:53:23.588Z,79.97
2019-02-14T06:55:54.524Z,80.00
2019-02-14T06:58:25.424Z,79.94
2019-02-14T07:00:58.048Z,80.03
2019-02-14T07:03:28.943Z,79.93
2019-02-14T07:05:59.869Z,79.78
2019-02-14T07:08:30.779Z,79.68
2019-02-14T07:11:01.711Z,79.58
2019-02-14T07:13:32.630Z,79.51
2019-02-14T07:16:03.675Z,79.44
2019-02-14T07:18:34.589Z,79.32
2019-02-14T07:21:05.525Z,79.24
2019-02-14T07:23:39.276Z,79.08
2019-02-14T07:26:10.218Z,78.89
2019-02-14T07:28:41.114Z,78.89
2019-02-14T07:31:12.089Z,78.74
2019-02-14T07:33:43.343Z,78.61
2019-02-14T07:36:14.272Z,78.49
2019-02-14T07:38:45.243Z,78.41
2019-02-14T07:41:16.175Z,78.29
2019-02-14T07:43:47.064Z,78.20
2019-02-14T07:46:22.683Z,77.96
2019-02-14T07:48:50.759Z,77.83
2019-02-14T07:51:21.746Z,77.71
2019-02-14T07:53:52.633Z,77.76
2019-02-14T07:56:23.574Z,77.73
2019-02-14T07:58:54.459Z,77.57
2019-02-14T08:01:25.486Z,77.57
2019-02-14T08:03:56.394Z,77.54
2019-02-14T08:06:27.318Z,77.43
2019-02-14T08:08:58.225Z,77.56
2019-02-14T08:11:29.155Z,77.46
2019-02-14T08:14:00.059Z,77.47
2019-02-14T08:16:31.020Z,77.42
2019-02-14T08:19:01.923Z,77.44
2019-02-14T08:21:32.864Z,77.44
2019-02-14T08:24:03.765Z,77.27
2019-02-14T08:26:37.392Z,77.24
2019-02-14T08:29:08.291Z,77.42
2019-02-14T08:31:39.415Z,77.35
2019-02-14T08:34:13.246Z,77.31
2019-02-14T08:36:44.280Z,77.37
2019-02-14T08:39:15.209Z,77.44
2019-02-14T08:41:46.149Z,77.32
2019-02-14T08:44:17.051Z,77.35
2019-02-14T08:46:48.004Z,77.55
2019-02-14T08:49:19.132Z,77.66
2019-02-14T08:51:50.902Z,77.55
2019-02-14T08:54:21.792Z,77.69
2019-02-14T08:56:52.726Z,77.63
2019-02-14T08:59:23.629Z,77.70
2019-02-14T09:01:54.583Z,77.96
2019-02-14T09:04:25.482Z,78.00
2019-02-14T09:06:56.408Z,77.94
2019-02-14T09:09:27.319Z,77.94
2019-02-14T09:11:58.247Z,78.13
2019-02-14T09:14:29.158Z,78.14
2019-02-14T09:17:05.881Z,78.08
2019-02-14T09:19:36.787Z,77.92
2019-02-14T09:22:07.797Z,78.15
2019-02-14T09:24:38.690Z,78.30
2019-02-14T09:27:09.635Z,78.24
2019-02-14T09:29:40.536Z,78.45
2019-02-14T09:32:11.609Z,78.54
2019-02-14T09:34:43.364Z,78.53
2019-02-14T09:37:14.323Z,78.77
2019-02-14T09:39:45.265Z,78.70
2019-02-14T09:42:18.717Z,78.93
2019-02-14T09:44:48.799Z,78.96
2019-02-14T09:47:19.783Z,78.87
2019-02-14T09:49:54.701Z,79.05
2019-02-14T09:52:25.639Z,79.07
2019-02-14T09:54:56.574Z,79.01
2019-02-14T09:57:27.493Z,78.87
2019-02-14T09:59:58.392Z,78.74
2019-02-14T10:02:29.367Z,78.72
2019-02-14T10:05:00.423Z,78.52
2019-02-14T10:07:31.358Z,78.64
2019-02-14T10:10:02.261Z,78.61
2019-02-14T10:12:33.220Z,78.38
2019-02-14T10:15:04.722Z,78.34
2019-02-14T10:17:35.779Z,78.29
2019-02-14T10:20:12.689Z,78.06
2019-02-14T10:22:43.623Z,78.05
2019-02-14T10:25:15.037Z,78.14
2019-02-14T10:27:48.940Z,78.17
2019-02-14T10:30:21.885Z,78.34
2019-02-14T10:32:53.977Z,78.16
2019-02-14T10:35:25.846Z,78.18
2019-02-14T10:37:58.293Z,78.43
2019-02-14T10:40:29.980Z,78.70
2019-02-14T10:43:00.915Z,78.83
2019-02-14T10:45:31.814Z,78.62
2019-02-14T10:48:02.830Z,78.53
2019-02-14T10:50:33.749Z,78.59
2019-02-14T10:53:04.750Z,78.51
2019-02-14T10:55:38.334Z,78.48
2019-02-14T10:58:09.269Z,78.56
2019-02-14T11:00:40.167Z,78.62
2019-02-14T11:03:11.212Z,78.65
2019-02-14T11:05:42.140Z,78.72
2019-02-14T11:08:13.057Z,79.02
2019-02-14T11:10:43.954Z,79.08
2019-02-14T11:13:16.474Z,79.31
2019-02-14T11:15:47.390Z,79.31
2019-02-14T11:18:18.374Z,79.52
2019-02-14T11:20:49.523Z,79.52
2019-02-14T11:23:20.415Z,79.72
2019-02-14T11:25:52.105Z,79.71
2019-02-14T11:28:23.045Z,79.97
2019-02-14T11:30:53.945Z,79.63
2019-02-14T11:33:25.167Z,79.76
2019-02-14T11:35:59.868Z,79.82
2019-02-14T11:38:30.881Z,80.12
2019-02-14T11:41:01.792Z,80.21
2019-02-14T11:43:32.734Z,80.22
2019-02-14T11:46:03.626Z,80.47
2019-02-14T11:48:34.597Z,80.56
2019-02-14T11:51:05.513Z,80.58
2019-02-14T11:53:36.509Z,80.68
2019-02-14T11:56:07.425Z,80.66
2019-02-14T11:58:38.357Z,80.62
2019-02-14T12:01:09.267Z,80.52
2019-02-14T12:03:43.470Z,80.81
2019-02-14T12:06:17.620Z,80.78
2019-02-14T12:08:59.517Z,80.93
2019-02-14T12:11:22.315Z,80.68
2019-02-14T12:13:53.322Z,80.86
2019-02-14T12:16:30.416Z,81.10
2019-02-14T12:18:56.993Z,81.01
2019-02-14T12:21:29.014Z,81.07
2019-02-14T12:23:59.920Z,81.00
2019-02-14T12:26:30.824Z,80.95
2019-02-14T12:29:01.745Z,80.75
2019-02-14T12:31:32.645Z,80.72
2019-02-14T12:34:03.827Z,80.57
2019-02-14T12:36:35.088Z,80.21
2019-02-14T12:41:40.667Z,79.93
2019-02-14T12:44:11.599Z,79.87
2019-02-14T12:46:45.672Z,79.79
2019-02-14T12:49:16.631Z,79.74
2019-02-14T12:51:47.553Z,79.69
2019-02-14T12:54:18.509Z,79.69
2019-02-14T12:56:49.401Z,79.78
2019-02-14T12:59:20.330Z,79.89
2019-02-14T13:01:51.233Z,80.06
2019-02-14T13:04:22.177Z,80.05
2019-02-14T13:06:53.081Z,80.11
2019-02-14T13:09:24.076Z,80.24
2019-02-14T13:11:55.001Z,80.43
2019-02-14T13:14:25.933Z,80.51
2019-02-14T13:16:56.837Z,80.39
2019-02-14T13:19:27.810Z,80.72
2019-02-14T13:21:58.731Z,80.66
2019-02-14T13:24:29.654Z,80.74
2019-02-14T13:27:02.869Z,80.57
2019-02-14T13:29:33.822Z,80.94
2019-02-14T13:32:04.719Z,80.74
2019-02-14T13:34:35.825Z,80.72
2019-02-14T13:37:07.521Z,80.75
2019-02-14T13:39:38.528Z,81.01
2019-02-14T13:42:09.508Z,81.13
2019-02-14T13:44:40.547Z,81.00
2019-02-14T13:47:11.462Z,81.00
2019-02-14T13:49:45.344Z,81.00
2019-02-14T13:52:16.246Z,80.82
2019-02-14T13:54:47.204Z,80.88
2019-02-14T13:57:18.206Z,81.20
2019-02-14T13:59:49.146Z,81.28
2019-02-14T14:02:20.037Z,81.44
2019-02-14T14:04:50.990Z,81.46
2019-02-14T14:07:21.899Z,81.55
2019-02-14T14:09:52.834Z,81.56
2019-02-14T14:12:25.335Z,81.93
2019-02-14T14:14:57.730Z,81.84
2019-02-14T14:17:28.622Z,81.78
2019-02-14T14:19:59.674Z,82.08
2019-02-14T14:22:30.568Z,81.95
2019-02-14T14:25:01.504Z,81.79
2019-02-14T14:27:32.419Z,82.00
2019-02-14T14:30:04.509Z,81.84
2019-02-14T14:32:35.427Z,81.69
2019-02-14T14:35:13.696Z,81.62
2019-02-14T14:37:45.428Z,81.99
2019-02-14T14:40:17.663Z,81.79
2019-02-14T14:42:53.418Z,81.91
2019-02-14T14:45:42.044Z,82.09
2019-02-14T14:48:19.525Z,81.96
2019-02-14T14:50:46.703Z,81.95
2019-02-14T14:53:17.614Z,81.91
2019-02-14T14:55:48.540Z,82.18
2019-02-14T14:58:19.471Z,82.24
2019-02-14T15:00:50.390Z,82.11
2019-02-14T15:03:21.304Z,82.13
2019-02-14T15:05:52.361Z,82.05
2019-02-14T15:08:26.239Z,82.45
2019-02-14T15:10:57.628Z,82.46
2019-02-14T15:13:28.538Z,82.28
2019-02-14T15:16:02.559Z,82.18
2019-02-14T15:18:33.451Z,82.08
2019-02-14T15:21:04.408Z,82.24
2019-02-14T15:23:35.314Z,82.17
2019-02-14T15:26:06.260Z,82.25
2019-02-14T15:28:37.641Z,82.25
2019-02-14T15:31:08.668Z,82.09
2019-02-14T15:33:39.591Z,82.02
2019-02-14T15:36:13.309Z,82.21
2019-02-14T15:38:45.094Z,82.30
2019-02-14T15:41:16.025Z,82.08
2019-02-14T15:43:46.927Z,82.09
2019-02-14T15:46:17.861Z,82.21
2019-02-14T15:48:48.766Z,82.33
2019-02-14T15:51:20.108Z,82.31
2019-02-14T15:53:51.135Z,82.33
2019-02-14T15:56:22.077Z,82.41
2019-02-14T15:58:55.347Z,82.53
2019-02-14T16:01:25.960Z,82.47
2019-02-14T16:03:56.860Z,82.41
2019-02-14T16:06:30.226Z,82.67
2019-02-14T16:09:00.410Z,82.65
2019-02-14T16:11:31.346Z,82.68
2019-02-14T16:14:02.277Z,82.88
2019-02-14T16:16:33.277Z,83.22
2019-02-14T16:19:04.187Z,83.32
2019-02-14T16:21:35.136Z,83.26
2019-02-14T16:24:06.041Z,83.06
2019-02-14T16:26:38.813Z,83.21
2019-02-14T16:29:09.580Z,83.44
2019-02-14T16:31:41.226Z,83.58
2019-02-14T16:34:12.149Z,83.80
2019-02-14T16:36:44.393Z,83.38
2019-02-14T16:39:15.382Z,83.29
2019-02-14T16:41:46.353Z,83.54
2019-02-14T16:44:17.254Z,83.34
2019-02-14T16:46:48.185Z,83.30
2019-02-14T16:49:21.781Z,83.22
2019-02-14T16:51:52.747Z,83.20
2019-02-14T16:54:23.657Z,83.09
2019-02-14T16:56:54.598Z,83.00
2019-02-14T16:59:28.234Z,82.96
2019-02-14T17:01:59.165Z,82.96
2019-02-14T17:04:30.079Z,82.73
2019-02-14T17:07:01.034Z,82.71
2019-02-14T17:09:35.092Z,82.60
2019-02-14T17:12:06.034Z,82.65
2019-02-14T17:14:39.817Z,82.46
2019-02-14T17:17:13.800Z,82.36
2019-02-14T17:19:44.704Z,82.29
2019-02-14T17:22:15.755Z,82.33
2019-02-14T17:24:46.654Z,82.24
2019-02-14T17:27:17.585Z,82.27
2019-02-14T17:29:48.566Z,82.14
2019-02-14T17:32:22.537Z,82.09
2019-02-14T17:34:53.439Z,81.90
2019-02-14T17:37:24.500Z,81.81
2019-02-14T17:39:56.169Z,81.69
2019-02-14T17:42:31.250Z,81.70
2019-02-14T17:45:02.155Z,81.66
2019-02-14T17:47:33.087Z,81.72
2019-02-14T17:50:04.409Z,81.53
2019-02-14T17:52:35.376Z,81.46
2019-02-14T17:55:08.873Z,81.45
2019-02-14T17:57:39.885Z,81.41
2019-02-14T18:00:12.769Z,81.34
2019-02-14T18:02:43.715Z,81.17
2019-02-14T18:05:14.624Z,81.22
2019-02-14T18:07:45.614Z,81.09
2019-02-14T18:10:19.450Z,81.00
2019-02-14T18:12:50.395Z,80.99
2019-02-14T18:15:27.331Z,81.21
2019-02-14T18:17:58.258Z,80.99
2019-02-14T18:20:29.160Z,80.86
2019-02-14T18:23:00.114Z,80.74
2019-02-14T18:25:31.030Z,80.64
2019-02-14T18:28:02.563Z,80.70
2019-02-14T18:30:53.289Z,80.59
2019-02-14T18:33:24.223Z,80.49
2019-02-14T18:35:55.231Z,80.40
2019-02-14T18:38:26.180Z,80.34
2019-02-14T18:41:03.837Z,80.29
2019-02-14T18:43:30.498Z,80.26
2019-02-14T18:46:01.478Z,80.26
2019-02-14T18:48:32.412Z,80.20
2019-02-14T18:51:03.319Z,80.11
2019-02-14T18:53:34.276Z,80.07
2019-02-14T18:56:05.192Z,79.97
2019-02-14T18:58:38.829Z,79.86
2019-02-14T19:01:09.737Z,79.87
2019-02-14T19:03:43.345Z,79.82
2019-02-14T19:06:14.246Z,79.77
2019-02-14T19:08:45.221Z,79.70
2019-02-14T19:11:16.130Z,79.65
2019-02-14T19:13:47.071Z,79.55
2019-02-14T19:16:18.075Z,79.52
2019-02-14T19:18:49.085Z,79.61
2019-02-14T19:21:19.991Z,79.70
2019-02-14T19:23:50.959Z,79.70
2019-02-14T19:26:21.872Z,79.68
2019-02-14T19:28:52.802Z,79.67
2019-02-14T19:31:23.776Z,79.61
2019-02-14T19:33:54.704Z,79.50
2019-02-14T19:36:25.648Z,79.47
2019-02-14T19:38:56.665Z,79.44
2019-02-14T19:41:27.575Z,79.42
2019-02-14T19:43:58.512Z,79.52
2019-02-14T19:46:29.402Z,79.44
2019-02-14T19:49:00.402Z,79.27
2019-02-14T19:51:31.314Z,79.32
2019-02-14T19:54:02.264Z,79.19
2019-02-14T19:56:33.169Z,79.17
2019-02-14T19:59:04.102Z,79.13
2019-02-14T20:01:35.018Z,79.01
2019-02-14T20:04:06.024Z,78.92
2019-02-14T20:06:39.681Z,78.85
2019-02-14T20:09:10.731Z,78.82
2019-02-14T20:11:41.653Z,78.78
2019-02-14T20:14:12.587Z,78.73
2019-02-14T20:16:43.487Z,78.64
2019-02-14T20:19:15.972Z,78.61
2019-02-14T20:21:46.869Z,78.55
2019-02-14T20:24:17.820Z,78.63
2019-02-14T20:26:48.726Z,78.70
2019-02-14T20:29:19.664Z,78.54
2019-02-14T20:31:50.668Z,78.45
2019-02-14T20:34:21.590Z,78.44
2019-02-14T20:36:52.494Z,78.27
2019-02-14T20:39:23.580Z,78.24
2019-02-14T20:41:55.284Z,78.18
2019-02-14T20:44:26.229Z,78.11
2019-02-14T20:46:57.145Z,78.06
2019-02-14T20:49:28.180Z,77.98
2019-02-14T20:51:59.084Z,77.91
2019-02-14T20:54:33.000Z,77.88
2019-02-14T20:57:03.907Z,77.90
2019-02-14T20:59:37.734Z,77.74
2019-02-14T21:02:08.740Z,77.72
2019-02-14T21:04:42.369Z,77.72
2019-02-14T21:07:13.269Z,77.67
2019-02-14T21:09:44.581Z,77.71
2019-02-14T21:12:15.561Z,77.70
2019-02-14T21:14:46.490Z,77.75
2019-02-14T21:17:17.400Z,77.80
2019-02-14T21:19:48.334Z,77.79
2019-02-14T21:22:22.165Z,77.79
2019-02-14T21:24:53.126Z,77.84
2019-02-14T21:27:24.053Z,77.97
2019-02-14T21:29:54.982Z,78.12
2019-02-14T21:32:28.926Z,78.17
2019-02-14T21:34:59.851Z,78.20
2019-02-14T21:37:30.757Z,78.53
2019-02-14T21:40:01.940Z,78.82
2019-02-14T21:42:32.911Z,78.91
2019-02-14T21:45:04.471Z,78.78
2019-02-14T21:47:35.408Z,79.22
2019-02-14T21:50:12.059Z,79.21
2019-02-14T21:52:43.107Z,79.33
2019-02-14T21:55:14.915Z,79.28
2019-02-14T21:57:48.830Z,79.52
2019-02-14T22:00:25.485Z,79.33
2019-02-14T22:02:56.402Z,79.22
2019-02-14T22:05:27.335Z,79.38
2019-02-14T22:07:58.603Z,79.31
2019-02-14T22:10:29.559Z,79.40
2019-02-14T22:13:02.103Z,79.45
2019-02-14T22:15:33.127Z,79.51
2019-02-14T22:18:04.074Z,79.75
2019-02-14T22:20:35.102Z,79.67
2019-02-14T22:23:06.006Z,79.45
2019-02-14T22:25:36.955Z,79.46
2019-02-14T22:28:07.869Z,79.40
2019-02-14T22:30:41.203Z,79.28
2019-02-14T22:33:12.112Z,79.41
2019-02-14T22:35:43.050Z,79.59
2019-02-14T22:38:13.955Z,79.83
2019-02-14T22:40:44.904Z,79.92
2019-02-14T22:43:15.808Z,80.27
2019-02-14T22:45:46.756Z,80.16
2019-02-14T22:48:17.652Z,79.91
2019-02-14T22:50:50.044Z,80.29
2019-02-14T22:53:22.038Z,80.17
2019-02-14T22:55:53.101Z,80.29
2019-02-14T22:58:24.072Z,80.15
2019-02-14T23:00:57.974Z,80.03
2019-02-14T23:03:28.880Z,80.12
2019-02-14T23:05:59.815Z,80.23
2019-02-14T23:08:30.736Z,80.36
2019-02-14T23:11:01.690Z,80.25
2019-02-14T23:13:32.694Z,80.22
2019-02-14T23:16:03.634Z,80.22
2019-02-14T23:18:34.550Z,80.05
2019-02-14T23:21:05.479Z,79.95
2019-02-14T23:23:36.388Z,79.85
2019-02-14T23:26:07.354Z,79.91
2019-02-14T23:28:38.305Z,79.62
2019-02-14T23:31:09.268Z,79.70
2019-02-14T23:33:40.253Z,79.66
2019-02-14T23:36:11.255Z,79.56
2019-02-14T23:38:42.163Z,79.47
2019-02-14T23:41:13.124Z,79.63
2019-02-14T23:43:44.065Z,79.21
2019-02-14T23:46:15.004Z,79.04
2019-02-14T23:48:45.911Z,78.98
2019-02-14T23:51:16.924Z,78.95
2019-02-14T23:53:47.838Z,78.84
2019-02-14T23:56:18.797Z,78.87
2019-02-14T23:58:49.698Z,78.60
